createdAt,value
2018-11-20T00:01:12.794Z,-0.20
2018-11-20T00:04:21.550Z,-0.30
2018-11-20T00:07:22.851Z,-0.40
2018-11-20T00:10:31.626Z,-0.40
2018-11-20T00:13:40.389Z,-0.40
2018-11-20T00:16:49.149Z,-0.30
2018-11-20T00:20:00.007Z,-0.30
2018-11-20T00:23:26.222Z,-0.40
2018-11-20T00:26:35.123Z,-0.40
2018-11-20T00:32:56.745Z,-0.40
2018-11-20T00:36:05.475Z,-0.40
2018-11-20T00:39:01.227Z,-0.40
2018-11-20T00:42:10.024Z,-0.30
2018-11-20T00:45:18.743Z,-0.20
2018-11-20T00:48:27.500Z,-0.20
2018-11-20T00:51:16.667Z,-0.20
2018-11-20T00:54:25.562Z,-0.20
2018-11-20T00:57:34.669Z,-0.10
2018-11-20T01:00:43.364Z,-0.10
2018-11-20T01:03:52.428Z,-0.10
2018-11-20T01:06:43.175Z,-0.10
2018-11-20T01:09:43.850Z,0.00
2018-11-20T01:13:29.045Z,0.00
2018-11-20T01:16:37.778Z,-0.10
2018-11-20T01:19:46.508Z,-0.10
2018-11-20T01:22:55.195Z,-0.10
2018-11-20T01:26:03.948Z,-0.10
2018-11-20T01:29:12.963Z,-0.10
2018-11-20T01:35:34.181Z,-0.10
2018-11-20T01:41:55.086Z,0.00
2018-11-20T01:45:03.774Z,0.10
2018-11-20T01:48:12.585Z,0.10
2018-11-20T01:55:24.020Z,0.10
2018-11-20T01:58:32.789Z,0.20
2018-11-20T02:01:41.734Z,0.10
2018-11-20T02:05:26.718Z,0.20
2018-11-20T02:08:35.508Z,0.20
2018-11-20T02:18:16.383Z,0.40
2018-11-20T02:21:25.189Z,0.40
2018-11-20T02:24:37.662Z,0.40
2018-11-20T02:27:37.672Z,0.50
2018-11-20T02:31:22.939Z,0.50
2018-11-20T02:34:31.884Z,0.50
2018-11-20T02:37:40.613Z,0.60
2018-11-20T02:44:03.377Z,0.60
2018-11-20T02:47:09.564Z,0.70
2018-11-20T02:50:18.239Z,0.70
2018-11-20T02:57:28.356Z,0.70
2018-11-20T03:00:37.045Z,0.70
2018-11-20T03:09:51.703Z,0.70
2018-11-20T03:19:42.414Z,0.80
2018-11-20T03:22:51.150Z,0.80
2018-11-20T03:26:01.113Z,0.80
2018-11-20T03:29:47.588Z,0.80
2018-11-20T03:32:56.293Z,0.80
2018-11-20T03:38:50.240Z,0.70
2018-11-20T03:42:06.003Z,0.70
2018-11-20T03:45:08.499Z,0.70
2018-11-20T03:48:17.176Z,0.60
2018-11-20T03:54:11.765Z,0.60
2018-11-20T03:57:59.990Z,0.50
2018-11-20T04:01:08.663Z,0.40
2018-11-20T04:10:42.790Z,0.20
2018-11-20T04:13:51.497Z,0.10
2018-11-20T04:17:10.650Z,0.00
2018-11-20T04:20:19.882Z,-0.10
2018-11-20T04:23:28.550Z,-0.10
2018-11-20T04:30:39.621Z,-0.10
2018-11-20T04:37:22.955Z,0.00
2018-11-20T04:40:31.751Z,-0.10
2018-11-20T04:47:02.690Z,0.00
2018-11-20T04:50:11.393Z,0.00
2018-11-20T04:53:20.351Z,0.00
2018-11-20T04:56:29.156Z,0.00
2018-11-20T05:06:12.698Z,-0.10
2018-11-20T05:09:21.907Z,-0.10
2018-11-20T05:12:30.630Z,0.00
2018-11-20T05:15:39.320Z,0.10
2018-11-20T05:18:48.012Z,0.30
2018-11-20T05:21:56.673Z,0.40
2018-11-20T05:28:56.774Z,0.50
2018-11-20T05:36:11.484Z,0.50
2018-11-20T05:39:15.833Z,0.50
2018-11-20T05:42:24.680Z,0.50
2018-11-20T05:49:44.927Z,0.50
2018-11-20T05:52:53.756Z,0.50
2018-11-20T05:56:38.763Z,0.60
2018-11-20T06:06:25.431Z,0.70
2018-11-20T06:12:21.887Z,0.70
2018-11-20T06:19:49.518Z,0.80
2018-11-20T06:26:14.812Z,0.80
2018-11-20T06:29:42.981Z,0.80
2018-11-20T06:33:25.693Z,0.90
2018-11-20T06:36:34.492Z,0.90
2018-11-20T06:47:36.517Z,0.90
2018-11-20T06:54:44.377Z,1.00
2018-11-20T07:01:18.014Z,0.90
2018-11-20T07:37:19.357Z,1.30
2018-11-20T07:47:00.589Z,1.50
2018-11-20T07:50:09.398Z,1.50
2018-11-20T07:53:18.084Z,1.50
2018-11-20T08:05:59.147Z,1.70
2018-11-20T08:09:00.974Z,1.70
2018-11-20T08:12:08.538Z,1.70
2018-11-20T08:15:53.917Z,1.70
2018-11-20T08:19:37.732Z,1.80
2018-11-20T08:29:09.942Z,1.90
2018-11-20T08:42:21.914Z,2.20
2018-11-20T08:48:16.967Z,2.20
2018-11-20T08:58:31.786Z,2.40
2018-11-20T09:02:21.845Z,2.60
2018-11-20T09:05:30.426Z,2.50
2018-11-20T09:15:40.397Z,2.60
2018-11-20T09:28:14.792Z,2.60
2018-11-20T09:31:23.610Z,2.60
2018-11-20T09:34:30.650Z,2.60
2018-11-20T09:37:39.260Z,2.70
2018-11-20T09:55:27.795Z,2.60
2018-11-20T10:05:30.973Z,2.70
2018-11-20T10:11:35.725Z,2.60
2018-11-20T10:18:13.536Z,2.40
2018-11-20T10:28:05.545Z,1.70
2018-11-20T10:38:15.068Z,1.30
2018-11-20T10:45:09.990Z,1.20
2018-11-20T10:52:17.908Z,1.00
2018-11-20T11:13:06.254Z,0.80
2018-11-20T11:16:32.450Z,0.90
2018-11-20T11:20:16.358Z,0.90
2018-11-20T11:27:12.440Z,0.90
2018-11-20T11:34:08.303Z,1.00
2018-11-20T11:37:17.472Z,1.00
2018-11-20T11:41:01.419Z,1.10
2018-11-20T11:44:30.625Z,1.10
2018-11-20T11:58:24.672Z,1.20
2018-11-20T12:05:03.805Z,1.20
2018-11-20T12:08:41.009Z,1.30
2018-11-20T12:11:49.843Z,1.30
2018-11-20T12:14:58.527Z,1.30
2018-11-20T12:18:25.113Z,1.30
2018-11-20T12:21:33.907Z,1.30
2018-11-20T12:24:42.647Z,1.40
2018-11-20T12:27:51.407Z,1.40
2018-11-20T12:34:12.698Z,1.40
2018-11-20T12:44:59.375Z,1.50
2018-11-20T12:48:25.453Z,1.40
2018-11-20T12:55:02.486Z,1.40
2018-11-20T13:09:07.463Z,1.60
2018-11-20T13:19:21.145Z,1.80
2018-11-20T13:25:55.862Z,1.60
2018-11-20T13:29:04.531Z,1.70
2018-11-20T13:32:13.258Z,1.90
2018-11-20T13:35:21.964Z,1.80
2018-11-20T13:42:00.060Z,1.90
2018-11-20T13:44:49.004Z,1.90
2018-11-20T13:47:57.781Z,2.00
2018-11-20T13:51:06.489Z,2.00
2018-11-20T13:57:57.082Z,2.00
2018-11-20T14:01:05.833Z,1.90
2018-11-20T14:04:38.130Z,2.00
2018-11-20T14:07:47.108Z,2.00
2018-11-20T14:14:43.452Z,2.00
2018-11-20T14:17:52.412Z,2.00
2018-11-20T14:24:54.424Z,2.00
2018-11-20T14:31:17.887Z,2.00
2018-11-20T14:38:30.766Z,2.00
2018-11-20T14:41:39.619Z,2.10
2018-11-20T14:45:03.578Z,2.00
2018-11-20T14:48:12.697Z,2.10
2018-11-20T14:51:21.437Z,2.10
2018-11-20T14:54:30.169Z,2.10
2018-11-20T14:57:39.010Z,2.10
2018-11-20T15:00:48.057Z,2.10
2018-11-20T15:03:56.737Z,2.20
2018-11-20T15:07:05.508Z,2.20
2018-11-20T15:13:29.749Z,2.20
2018-11-20T15:16:38.445Z,2.20
2018-11-20T15:19:47.218Z,2.20
2018-11-20T15:22:55.937Z,2.20
2018-11-20T15:26:22.146Z,2.20
2018-11-20T15:33:19.225Z,2.10
2018-11-20T15:39:42.449Z,2.10
2018-11-20T15:48:57.577Z,2.00
2018-11-20T15:52:23.833Z,2.00
2018-11-20T15:55:32.654Z,2.10
2018-11-20T15:58:41.616Z,2.10
2018-11-20T16:01:50.863Z,2.00
2018-11-20T16:04:59.594Z,2.00
2018-11-20T16:07:58.132Z,2.00
2018-11-20T16:11:06.957Z,2.10
2018-11-20T16:14:15.909Z,2.10
2018-11-20T16:17:24.700Z,2.10
2018-11-20T16:20:21.985Z,2.10
2018-11-20T16:24:07.131Z,2.20
2018-11-20T16:27:15.834Z,2.20
2018-11-20T16:30:26.258Z,2.20
2018-11-20T16:33:38.691Z,2.20
2018-11-20T16:36:47.824Z,2.10
2018-11-20T16:39:56.500Z,2.10
2018-11-20T16:50:48.828Z,2.10
2018-11-20T16:53:57.529Z,2.10
2018-11-20T17:01:00.597Z,2.10
2018-11-20T17:07:58.850Z,2.20
2018-11-20T17:13:57.983Z,2.30
2018-11-20T17:20:37.450Z,2.40
2018-11-20T17:24:22.552Z,2.40
2018-11-20T17:27:31.303Z,2.40
2018-11-20T17:37:04.279Z,2.30
2018-11-20T17:40:08.124Z,2.20
2018-11-20T17:43:14.896Z,2.10
2018-11-20T17:46:02.748Z,2.00
2018-11-20T17:48:43.863Z,2.10
2018-11-20T17:51:38.276Z,2.10
2018-11-20T17:54:26.985Z,2.20
2018-11-20T17:57:14.288Z,2.10
2018-11-20T18:00:09.146Z,2.10
2018-11-20T18:03:03.759Z,2.20
2018-11-20T18:05:58.421Z,2.20
2018-11-20T18:08:45.552Z,2.20
2018-11-20T18:11:32.917Z,2.20
2018-11-20T18:14:20.569Z,2.20
2018-11-20T18:17:08.074Z,2.10
2018-11-20T18:19:52.249Z,2.10
2018-11-20T18:22:46.709Z,2.10
2018-11-20T18:25:44.270Z,2.10
2018-11-20T18:28:41.892Z,2.10
2018-11-20T18:31:42.664Z,2.10
2018-11-20T18:34:30.538Z,2.10
2018-11-20T18:37:34.512Z,2.10
2018-11-20T18:40:24.065Z,2.20
2018-11-20T18:43:22.461Z,2.20
2018-11-20T18:46:13.981Z,2.30
2018-11-20T18:49:04.637Z,2.20
2018-11-20T18:51:52.485Z,2.30
2018-11-20T18:54:47.365Z,2.40
2018-11-20T18:57:47.827Z,2.50
2018-11-20T19:00:35.491Z,2.50
2018-11-20T19:03:18.443Z,2.50
2018-11-20T19:06:01.582Z,2.50
2018-11-20T19:08:50.237Z,2.50
2018-11-20T19:11:36.826Z,2.50
2018-11-20T19:14:34.548Z,2.50
2018-11-20T19:17:23.413Z,2.40
2018-11-20T19:20:11.969Z,2.40
2018-11-20T19:22:59.235Z,2.40
2018-11-20T19:25:50.808Z,2.40
2018-11-20T19:28:42.559Z,2.30
2018-11-20T19:31:43.481Z,2.30
2018-11-20T19:34:47.598Z,2.20
2018-11-20T19:37:37.531Z,2.20
2018-11-20T19:40:43.222Z,2.20
2018-11-20T19:43:35.498Z,2.10
2018-11-20T19:46:39.689Z,2.10
2018-11-20T19:49:37.744Z,2.00
2018-11-20T19:52:26.422Z,1.90
2018-11-20T19:55:14.097Z,1.90
2018-11-20T19:58:01.606Z,1.80
2018-11-20T20:00:50.164Z,1.70
2018-11-20T20:03:37.697Z,1.70
2018-11-20T20:06:25.075Z,1.60
2018-11-20T20:09:13.648Z,1.60
2018-11-20T20:12:01.251Z,1.50
2018-11-20T20:15:08.190Z,1.50
2018-11-20T20:17:53.479Z,1.40
2018-11-20T20:20:42.158Z,1.40
2018-11-20T20:23:39.576Z,1.40
2018-11-20T20:26:29.451Z,1.40
2018-11-20T20:29:17.064Z,1.30
2018-11-20T20:32:05.685Z,1.30
2018-11-20T20:34:53.092Z,1.30
2018-11-20T20:37:41.695Z,1.20
2018-11-20T20:40:39.208Z,1.20
2018-11-20T20:43:23.532Z,1.10
2018-11-20T20:46:22.215Z,1.10
2018-11-20T20:49:09.628Z,1.00
2018-11-20T20:51:46.443Z,0.90
2018-11-20T20:54:44.638Z,0.90
2018-11-20T20:57:42.626Z,0.90
2018-11-20T21:00:32.190Z,0.90
2018-11-20T21:03:23.519Z,0.90
2018-11-20T21:06:11.386Z,0.80
2018-11-20T21:08:58.844Z,0.80
2018-11-20T21:11:45.518Z,0.80
2018-11-20T21:14:41.027Z,0.80
2018-11-20T21:17:24.024Z,0.70
2018-11-20T21:20:15.664Z,0.70
2018-11-20T21:23:03.570Z,0.70
2018-11-20T21:25:49.831Z,0.70
2018-11-20T21:28:37.374Z,0.60
2018-11-20T21:31:25.395Z,0.60
2018-11-20T21:34:12.652Z,0.50
2018-11-20T21:37:16.227Z,0.50
2018-11-20T21:40:04.092Z,0.50
2018-11-20T21:42:58.718Z,0.40
2018-11-20T21:45:45.852Z,0.40
2018-11-20T21:48:33.456Z,0.40
2018-11-20T21:51:20.882Z,0.40
2018-11-20T21:54:15.814Z,0.30
2018-11-20T21:56:55.362Z,0.30
2018-11-20T21:59:53.457Z,0.30
2018-11-20T22:02:42.201Z,0.20
2018-11-20T22:05:40.181Z,0.30
2018-11-20T22:08:27.241Z,0.20
2018-11-20T22:11:15.864Z,0.20
2018-11-20T22:13:50.659Z,0.10
2018-11-20T22:16:42.012Z,0.10
2018-11-20T22:19:34.432Z,0.10
2018-11-20T22:22:21.803Z,0.10
2018-11-20T22:25:10.439Z,0.00
2018-11-20T22:28:01.626Z,0.00
2018-11-20T22:31:08.916Z,-0.10
2018-11-20T22:34:06.701Z,-0.10
2018-11-20T22:36:54.179Z,-0.10
2018-11-20T22:39:52.415Z,-0.10
2018-11-20T22:42:39.720Z,-0.20
2018-11-20T22:45:40.399Z,-0.20
2018-11-20T22:48:31.806Z,-0.20
2018-11-20T22:51:19.395Z,-0.20
2018-11-20T22:54:07.297Z,-0.20
2018-11-20T22:57:00.960Z,-0.20
2018-11-20T22:59:46.111Z,-0.20
2018-11-20T23:02:37.609Z,-0.30
2018-11-20T23:05:25.772Z,-0.30
2018-11-20T23:07:58.876Z,-0.30
2018-11-20T23:10:30.127Z,-0.30
2018-11-20T23:12:59.844Z,-0.40
2018-11-20T23:15:29.399Z,-0.40
2018-11-20T23:17:59.295Z,-0.40
2018-11-20T23:20:28.918Z,-0.40
2018-11-20T23:22:58.915Z,-0.40
2018-11-20T23:25:29.243Z,-0.40
2018-11-20T23:27:58.890Z,-0.40
2018-11-20T23:30:28.733Z,-0.40
2018-11-20T23:32:58.370Z,-0.40
2018-11-20T23:35:28.280Z,-0.40
2018-11-20T23:37:58.260Z,-0.40
2018-11-20T23:40:28.178Z,-0.40
2018-11-20T23:42:57.717Z,-0.40
2018-11-20T23:45:27.348Z,-0.40
2018-11-20T23:47:57.698Z,-0.50
2018-11-20T23:50:27.339Z,-0.50
2018-11-20T23:52:56.969Z,-0.50
2018-11-20T23:55:26.504Z,-0.50
2018-11-20T23:57:56.046Z,-0.60
